sensor_id;sensor_type;location;lat;lon;timestamp;P1;durP1;ratioP1;P2;durP2;ratioP2
57826;SDS011;43656;57.746;11.780;2023-06-22T00:01:49;12.05;;;5.93;;
57826;SDS011;43656;57.746;11.780;2023-06-22T00:04:15;12.32;;;4.97;;
57826;SDS011;43656;57.746;11.780;2023-06-22T00:06:40;8.55;;;4.72;;
57826;SDS011;43656;57.746;11.780;2023-06-22T00:09:07;15.70;;;4.88;;
57826;SDS011;43656;57.746;11.780;2023-06-22T00:11:33;11.35;;;5.15;;
57826;SDS011;43656;57.746;11.780;2023-06-22T00:14:02;9.57;;;4.38;;
57826;SDS011;43656;57.746;11.780;2023-06-22T00:16:28;12.65;;;4.88;;
57826;SDS011;43656;57.746;11.780;2023-06-22T00:18:54;14.77;;;5.05;;
57826;SDS011;43656;57.746;11.780;2023-06-22T00:21:19;13.02;;;5.50;;
57826;SDS011;43656;57.746;11.780;2023-06-22T00:23:45;14.32;;;5.03;;
57826;SDS011;43656;57.746;11.780;2023-06-22T00:26:12;10.90;;;4.63;;
57826;SDS011;43656;57.746;11.780;2023-06-22T00:28:38;11.57;;;4.80;;
57826;SDS011;43656;57.746;11.780;2023-06-22T00:31:03;12.32;;;4.88;;
57826;SDS011;43656;57.746;11.780;2023-06-22T00:33:29;13.30;;;4.53;;
57826;SDS011;43656;57.746;11.780;2023-06-22T00:35:54;13.95;;;4.90;;
57826;SDS011;43656;57.746;11.780;2023-06-22T00:38:20;10.75;;;4.65;;
57826;SDS011;43656;57.746;11.780;2023-06-22T00:40:45;11.18;;;4.40;;
57826;SDS011;43656;57.746;11.780;2023-06-22T00:43:11;12.02;;;4.63;;
57826;SDS011;43656;57.746;11.780;2023-06-22T00:45:36;13.05;;;4.47;;
57826;SDS011;43656;57.746;11.780;2023-06-22T00:48:02;10.63;;;4.43;;
57826;SDS011;43656;57.746;11.780;2023-06-22T00:50:29;13.48;;;4.72;;
57826;SDS011;43656;57.746;11.780;2023-06-22T00:52:58;12.68;;;4.55;;
57826;SDS011;43656;57.746;11.780;2023-06-22T00:55:25;10.98;;;4.10;;
57826;SDS011;43656;57.746;11.780;2023-06-22T00:57:52;7.95;;;4.22;;
57826;SDS011;43656;57.746;11.780;2023-06-22T01:00:22;10.43;;;4.40;;
57826;SDS011;43656;57.746;11.780;2023-06-22T01:02:49;11.98;;;4.35;;
57826;SDS011;43656;57.746;11.780;2023-06-22T01:05:17;13.80;;;4.65;;
57826;SDS011;43656;57.746;11.780;2023-06-22T01:07:53;12.57;;;5.00;;
57826;SDS011;43656;57.746;11.780;2023-06-22T01:16:11;10.57;;;4.15;;
57826;SDS011;43656;57.746;11.780;2023-06-22T01:18:42;13.02;;;4.88;;
57826;SDS011;43656;57.746;11.780;2023-06-22T01:21:09;13.10;;;5.25;;
57826;SDS011;43656;57.746;11.780;2023-06-22T01:26:36;13.50;;;5.50;;
57826;SDS011;43656;57.746;11.780;2023-06-22T01:29:07;12.38;;;4.53;;
57826;SDS011;43656;57.746;11.780;2023-06-22T01:31:37;16.30;;;4.85;;
57826;SDS011;43656;57.746;11.780;2023-06-22T01:34:05;12.20;;;4.85;;
57826;SDS011;43656;57.746;11.780;2023-06-22T01:36:32;15.65;;;4.80;;
57826;SDS011;43656;57.746;11.780;2023-06-22T01:38:59;15.68;;;4.80;;
57826;SDS011;43656;57.746;11.780;2023-06-22T01:41:27;19.42;;;5.03;;
57826;SDS011;43656;57.746;11.780;2023-06-22T01:43:55;20.05;;;5.03;;
57826;SDS011;43656;57.746;11.780;2023-06-22T01:46:21;14.60;;;5.03;;
57826;SDS011;43656;57.746;11.780;2023-06-22T01:48:47;14.13;;;5.63;;
57826;SDS011;43656;57.746;11.780;2023-06-22T01:51:13;13.82;;;5.03;;
57826;SDS011;43656;57.746;11.780;2023-06-22T01:53:39;16.65;;;5.13;;
57826;SDS011;43656;57.746;11.780;2023-06-22T01:56:04;11.68;;;4.85;;
57826;SDS011;43656;57.746;11.780;2023-06-22T01:58:31;16.42;;;5.45;;
57826;SDS011;43656;57.746;11.780;2023-06-22T02:01:10;11.85;;;4.60;;
57826;SDS011;43656;57.746;11.780;2023-06-22T02:03:37;17.27;;;5.20;;
57826;SDS011;43656;57.746;11.780;2023-06-22T02:06:31;15.30;;;4.60;;
57826;SDS011;43656;57.746;11.780;2023-06-22T02:09:01;17.15;;;5.32;;
57826;SDS011;43656;57.746;11.780;2023-06-22T02:11:29;12.98;;;4.60;;
57826;SDS011;43656;57.746;11.780;2023-06-22T02:13:57;19.08;;;5.40;;
57826;SDS011;43656;57.746;11.780;2023-06-22T02:16:23;11.93;;;4.50;;
57826;SDS011;43656;57.746;11.780;2023-06-22T02:18:49;12.05;;;4.63;;
57826;SDS011;43656;57.746;11.780;2023-06-22T02:21:18;13.82;;;4.78;;
57826;SDS011;43656;57.746;11.780;2023-06-22T02:23:44;10.65;;;4.32;;
57826;SDS011;43656;57.746;11.780;2023-06-22T02:26:11;16.98;;;5.47;;
57826;SDS011;43656;57.746;11.780;2023-06-22T02:28:37;14.32;;;5.28;;
57826;SDS011;43656;57.746;11.780;2023-06-22T02:31:03;9.80;;;4.70;;
57826;SDS011;43656;57.746;11.780;2023-06-22T02:33:28;13.18;;;4.88;;
57826;SDS011;43656;57.746;11.780;2023-06-22T02:35:53;14.02;;;5.20;;
57826;SDS011;43656;57.746;11.780;2023-06-22T02:38:19;23.55;;;5.10;;
57826;SDS011;43656;57.746;11.780;2023-06-22T02:40:45;15.23;;;5.03;;
57826;SDS011;43656;57.746;11.780;2023-06-22T02:43:10;8.55;;;4.03;;
57826;SDS011;43656;57.746;11.780;2023-06-22T02:45:36;14.23;;;4.35;;
57826;SDS011;43656;57.746;11.780;2023-06-22T02:48:01;15.30;;;5.20;;
57826;SDS011;43656;57.746;11.780;2023-06-22T02:50:27;12.98;;;4.88;;
57826;SDS011;43656;57.746;11.780;2023-06-22T02:52:52;14.75;;;5.05;;
57826;SDS011;43656;57.746;11.780;2023-06-22T02:55:17;14.48;;;4.70;;
57826;SDS011;43656;57.746;11.780;2023-06-22T02:57:43;13.07;;;4.53;;
57826;SDS011;43656;57.746;11.780;2023-06-22T03:00:09;15.35;;;5.00;;
57826;SDS011;43656;57.746;11.780;2023-06-22T03:02:48;18.80;;;4.93;;
57826;SDS011;43656;57.746;11.780;2023-06-22T03:05:14;12.50;;;5.15;;
57826;SDS011;43656;57.746;11.780;2023-06-22T03:07:40;16.45;;;5.00;;
57826;SDS011;43656;57.746;11.780;2023-06-22T03:10:07;15.70;;;5.13;;
57826;SDS011;43656;57.746;11.780;2023-06-22T03:12:37;16.73;;;5.40;;
57826;SDS011;43656;57.746;11.780;2023-06-22T03:15:06;19.63;;;5.20;;
57826;SDS011;43656;57.746;11.780;2023-06-22T03:17:36;12.65;;;4.63;;
57826;SDS011;43656;57.746;11.780;2023-06-22T03:20:04;19.30;;;5.25;;
57826;SDS011;43656;57.746;11.780;2023-06-22T03:22:40;16.30;;;4.30;;
57826;SDS011;43656;57.746;11.780;2023-06-22T03:25:07;16.00;;;5.20;;
57826;SDS011;43656;57.746;11.780;2023-06-22T03:27:38;15.88;;;5.03;;
57826;SDS011;43656;57.746;11.780;2023-06-22T03:30:08;14.35;;;4.90;;
57826;SDS011;43656;57.746;11.780;2023-06-22T03:32:34;18.05;;;5.15;;
57826;SDS011;43656;57.746;11.780;2023-06-22T03:35:00;14.23;;;4.95;;
57826;SDS011;43656;57.746;11.780;2023-06-22T03:37:27;14.80;;;4.47;;
57826;SDS011;43656;57.746;11.780;2023-06-22T03:39:52;13.20;;;5.00;;
57826;SDS011;43656;57.746;11.780;2023-06-22T03:42:18;16.88;;;5.82;;
57826;SDS011;43656;57.746;11.780;2023-06-22T03:44:44;16.13;;;4.72;;
57826;SDS011;43656;57.746;11.780;2023-06-22T03:47:09;13.95;;;5.07;;
57826;SDS011;43656;57.746;11.780;2023-06-22T03:49:34;15.88;;;4.97;;
57826;SDS011;43656;57.746;11.780;2023-06-22T03:52:01;16.40;;;4.88;;
57826;SDS011;43656;57.746;11.780;2023-06-22T03:54:28;11.48;;;4.70;;
57826;SDS011;43656;57.746;11.780;2023-06-22T03:56:54;15.38;;;4.78;;
57826;SDS011;43656;57.746;11.780;2023-06-22T03:59:20;14.68;;;4.40;;
57826;SDS011;43656;57.746;11.780;2023-06-22T04:01:45;19.15;;;5.20;;
57826;SDS011;43656;57.746;11.780;2023-06-22T04:04:11;16.73;;;4.85;;
57826;SDS011;43656;57.746;11.780;2023-06-22T04:06:37;14.40;;;4.75;;
57826;SDS011;43656;57.746;11.780;2023-06-22T04:09:03;15.27;;;4.70;;
57826;SDS011;43656;57.746;11.780;2023-06-22T04:11:28;12.40;;;4.50;;
57826;SDS011;43656;57.746;11.780;2023-06-22T04:13:54;12.10;;;4.75;;
57826;SDS011;43656;57.746;11.780;2023-06-22T04:16:19;14.88;;;4.32;;
57826;SDS011;43656;57.746;11.780;2023-06-22T04:18:44;16.42;;;5.10;;
57826;SDS011;43656;57.746;11.780;2023-06-22T04:21:10;20.83;;;5.28;;
57826;SDS011;43656;57.746;11.780;2023-06-22T04:23:35;14.10;;;4.82;;
57826;SDS011;43656;57.746;11.780;2023-06-22T04:26:01;15.75;;;4.72;;
57826;SDS011;43656;57.746;11.780;2023-06-22T04:28:26;15.32;;;5.10;;
57826;SDS011;43656;57.746;11.780;2023-06-22T04:30:52;15.57;;;4.90;;
57826;SDS011;43656;57.746;11.780;2023-06-22T04:33:17;20.65;;;5.32;;
57826;SDS011;43656;57.746;11.780;2023-06-22T04:35:46;14.88;;;4.68;;
57826;SDS011;43656;57.746;11.780;2023-06-22T04:38:12;17.55;;;4.68;;
57826;SDS011;43656;57.746;11.780;2023-06-22T04:40:38;15.50;;;5.18;;
57826;SDS011;43656;57.746;11.780;2023-06-22T04:43:04;14.00;;;5.20;;
57826;SDS011;43656;57.746;11.780;2023-06-22T04:45:32;10.23;;;4.53;;
57826;SDS011;43656;57.746;11.780;2023-06-22T04:47:58;11.98;;;5.05;;
57826;SDS011;43656;57.746;11.780;2023-06-22T04:50:24;13.32;;;4.95;;
57826;SDS011;43656;57.746;11.780;2023-06-22T04:52:49;10.68;;;4.60;;
57826;SDS011;43656;57.746;11.780;2023-06-22T04:55:15;13.65;;;4.63;;
57826;SDS011;43656;57.746;11.780;2023-06-22T04:57:48;16.38;;;5.20;;
57826;SDS011;43656;57.746;11.780;2023-06-22T05:00:22;13.85;;;5.57;;
57826;SDS011;43656;57.746;11.780;2023-06-22T05:02:48;11.82;;;4.75;;
57826;SDS011;43656;57.746;11.780;2023-06-22T05:05:14;13.63;;;5.38;;
57826;SDS011;43656;57.746;11.780;2023-06-22T05:07:46;17.05;;;4.93;;
57826;SDS011;43656;57.746;11.780;2023-06-22T05:10:15;11.77;;;5.05;;
57826;SDS011;43656;57.746;11.780;2023-06-22T05:12:41;12.95;;;5.25;;
57826;SDS011;43656;57.746;11.780;2023-06-22T05:15:07;12.45;;;5.00;;
57826;SDS011;43656;57.746;11.780;2023-06-22T05:17:33;14.00;;;5.03;;
57826;SDS011;43656;57.746;11.780;2023-06-22T05:19:59;12.82;;;4.93;;
57826;SDS011;43656;57.746;11.780;2023-06-22T05:22:24;14.05;;;5.22;;
57826;SDS011;43656;57.746;11.780;2023-06-22T05:24:50;12.93;;;5.20;;
57826;SDS011;43656;57.746;11.780;2023-06-22T05:27:15;11.90;;;4.90;;
57826;SDS011;43656;57.746;11.780;2023-06-22T05:29:41;12.23;;;4.80;;
57826;SDS011;43656;57.746;11.780;2023-06-22T05:32:07;14.60;;;5.20;;
57826;SDS011;43656;57.746;11.780;2023-06-22T05:34:33;14.43;;;5.10;;
57826;SDS011;43656;57.746;11.780;2023-06-22T05:36:58;14.90;;;5.40;;
57826;SDS011;43656;57.746;11.780;2023-06-22T05:39:24;11.35;;;5.03;;
57826;SDS011;43656;57.746;11.780;2023-06-22T05:41:50;11.75;;;4.80;;
57826;SDS011;43656;57.746;11.780;2023-06-22T05:44:16;11.90;;;4.75;;
57826;SDS011;43656;57.746;11.780;2023-06-22T05:46:42;12.15;;;4.82;;
57826;SDS011;43656;57.746;11.780;2023-06-22T05:49:13;15.77;;;4.85;;
57826;SDS011;43656;57.746;11.780;2023-06-22T05:51:39;15.93;;;4.65;;
57826;SDS011;43656;57.746;11.780;2023-06-22T05:54:05;14.13;;;4.82;;
57826;SDS011;43656;57.746;11.780;2023-06-22T05:56:31;11.18;;;4.80;;
57826;SDS011;43656;57.746;11.780;2023-06-22T05:58:56;12.98;;;4.70;;
57826;SDS011;43656;57.746;11.780;2023-06-22T06:01:22;10.82;;;4.60;;
57826;SDS011;43656;57.746;11.780;2023-06-22T06:03:47;19.23;;;5.40;;
57826;SDS011;43656;57.746;11.780;2023-06-22T06:06:14;9.90;;;4.93;;
57826;SDS011;43656;57.746;11.780;2023-06-22T06:08:40;14.35;;;4.80;;
57826;SDS011;43656;57.746;11.780;2023-06-22T06:11:06;10.25;;;4.40;;
57826;SDS011;43656;57.746;11.780;2023-06-22T06:13:31;13.25;;;5.22;;
57826;SDS011;43656;57.746;11.780;2023-06-22T06:15:57;14.88;;;4.90;;
57826;SDS011;43656;57.746;11.780;2023-06-22T06:18:24;12.63;;;4.80;;
57826;SDS011;43656;57.746;11.780;2023-06-22T06:20:49;14.55;;;5.30;;
57826;SDS011;43656;57.746;11.780;2023-06-22T06:23:16;10.93;;;4.57;;
57826;SDS011;43656;57.746;11.780;2023-06-22T06:25:41;10.07;;;4.50;;
57826;SDS011;43656;57.746;11.780;2023-06-22T06:28:07;15.82;;;5.25;;
57826;SDS011;43656;57.746;11.780;2023-06-22T06:30:33;9.63;;;4.30;;
57826;SDS011;43656;57.746;11.780;2023-06-22T06:32:58;17.55;;;5.18;;
57826;SDS011;43656;57.746;11.780;2023-06-22T06:35:23;13.88;;;4.90;;
57826;SDS011;43656;57.746;11.780;2023-06-22T06:37:49;17.67;;;5.03;;
57826;SDS011;43656;57.746;11.780;2023-06-22T06:40:16;11.73;;;4.80;;
57826;SDS011;43656;57.746;11.780;2023-06-22T06:42:44;12.20;;;4.70;;
57826;SDS011;43656;57.746;11.780;2023-06-22T06:47:48;12.77;;;4.72;;
57826;SDS011;43656;57.746;11.780;2023-06-22T06:50:14;11.93;;;4.55;;
57826;SDS011;43656;57.746;11.780;2023-06-22T06:52:40;10.50;;;4.38;;
57826;SDS011;43656;57.746;11.780;2023-06-22T06:55:06;12.23;;;4.60;;
57826;SDS011;43656;57.746;11.780;2023-06-22T06:57:35;13.85;;;4.35;;
57826;SDS011;43656;57.746;11.780;2023-06-22T07:00:02;12.20;;;4.53;;
57826;SDS011;43656;57.746;11.780;2023-06-22T07:02:34;9.98;;;4.18;;
57826;SDS011;43656;57.746;11.780;2023-06-22T07:04:59;9.43;;;4.53;;
57826;SDS011;43656;57.746;11.780;2023-06-22T07:07:25;12.95;;;4.63;;
57826;SDS011;43656;57.746;11.780;2023-06-22T07:09:50;17.17;;;4.90;;
57826;SDS011;43656;57.746;11.780;2023-06-22T07:12:16;14.55;;;4.18;;
57826;SDS011;43656;57.746;11.780;2023-06-22T07:14:41;11.38;;;4.68;;
57826;SDS011;43656;57.746;11.780;2023-06-22T07:17:07;9.65;;;4.18;;
57826;SDS011;43656;57.746;11.780;2023-06-22T07:19:32;13.45;;;4.55;;
57826;SDS011;43656;57.746;11.780;2023-06-22T07:21:58;11.43;;;4.47;;
57826;SDS011;43656;57.746;11.780;2023-06-22T07:24:23;14.13;;;4.95;;
57826;SDS011;43656;57.746;11.780;2023-06-22T07:26:49;13.30;;;4.78;;
57826;SDS011;43656;57.746;11.780;2023-06-22T07:29:16;15.48;;;4.82;;
57826;SDS011;43656;57.746;11.780;2023-06-22T07:31:43;11.20;;;4.22;;
57826;SDS011;43656;57.746;11.780;2023-06-22T07:34:09;10.63;;;4.30;;
57826;SDS011;43656;57.746;11.780;2023-06-22T07:36:34;14.18;;;4.50;;
57826;SDS011;43656;57.746;11.780;2023-06-22T07:39:01;13.50;;;4.57;;
57826;SDS011;43656;57.746;11.780;2023-06-22T07:41:29;12.23;;;4.32;;
57826;SDS011;43656;57.746;11.780;2023-06-22T07:43:55;11.73;;;4.13;;
57826;SDS011;43656;57.746;11.780;2023-06-22T07:46:21;12.00;;;4.30;;
57826;SDS011;43656;57.746;11.780;2023-06-22T07:48:47;8.38;;;4.30;;
57826;SDS011;43656;57.746;11.780;2023-06-22T07:51:12;13.20;;;4.50;;
57826;SDS011;43656;57.746;11.780;2023-06-22T07:53:38;13.60;;;4.18;;
57826;SDS011;43656;57.746;11.780;2023-06-22T07:56:05;11.90;;;4.53;;
57826;SDS011;43656;57.746;11.780;2023-06-22T07:58:32;13.88;;;4.25;;
57826;SDS011;43656;57.746;11.780;2023-06-22T08:00:58;9.77;;;4.53;;
57826;SDS011;43656;57.746;11.780;2023-06-22T08:03:24;12.85;;;4.43;;
57826;SDS011;43656;57.746;11.780;2023-06-22T08:05:49;9.70;;;4.00;;
57826;SDS011;43656;57.746;11.780;2023-06-22T08:08:15;12.38;;;3.90;;
57826;SDS011;43656;57.746;11.780;2023-06-22T08:10:40;10.35;;;4.20;;
57826;SDS011;43656;57.746;11.780;2023-06-22T08:13:07;9.75;;;4.30;;
57826;SDS011;43656;57.746;11.780;2023-06-22T08:15:34;12.52;;;4.00;;
57826;SDS011;43656;57.746;11.780;2023-06-22T08:17:59;10.45;;;3.75;;
57826;SDS011;43656;57.746;11.780;2023-06-22T08:20:25;9.65;;;4.25;;
57826;SDS011;43656;57.746;11.780;2023-06-22T08:22:52;11.18;;;3.95;;
57826;SDS011;43656;57.746;11.780;2023-06-22T08:25:19;8.23;;;3.38;;
57826;SDS011;43656;57.746;11.780;2023-06-22T08:27:44;10.07;;;3.70;;
57826;SDS011;43656;57.746;11.780;2023-06-22T08:30:12;10.07;;;3.70;;
57826;SDS011;43656;57.746;11.780;2023-06-22T08:32:37;7.60;;;3.30;;
57826;SDS011;43656;57.746;11.780;2023-06-22T08:35:03;9.82;;;3.90;;
57826;SDS011;43656;57.746;11.780;2023-06-22T08:37:29;6.05;;;3.25;;
57826;SDS011;43656;57.746;11.780;2023-06-22T08:40:01;9.95;;;3.78;;
57826;SDS011;43656;57.746;11.780;2023-06-22T08:42:33;6.70;;;3.53;;
57826;SDS011;43656;57.746;11.780;2023-06-22T08:44:59;7.30;;;3.55;;
57826;SDS011;43656;57.746;11.780;2023-06-22T08:47:25;12.15;;;3.40;;
57826;SDS011;43656;57.746;11.780;2023-06-22T08:49:52;6.18;;;2.70;;
57826;SDS011;43656;57.746;11.780;2023-06-22T08:52:18;8.73;;;3.25;;
57826;SDS011;43656;57.746;11.780;2023-06-22T08:54:45;7.55;;;3.28;;
57826;SDS011;43656;57.746;11.780;2023-06-22T08:57:10;8.73;;;3.42;;
57826;SDS011;43656;57.746;11.780;2023-06-22T08:59:36;8.45;;;3.50;;
57826;SDS011;43656;57.746;11.780;2023-06-22T09:02:01;8.75;;;3.30;;
57826;SDS011;43656;57.746;11.780;2023-06-22T09:04:27;7.00;;;3.20;;
57826;SDS011;43656;57.746;11.780;2023-06-22T09:06:53;6.93;;;3.08;;
57826;SDS011;43656;57.746;11.780;2023-06-22T09:09:18;8.77;;;3.72;;
57826;SDS011;43656;57.746;11.780;2023-06-22T09:11:44;8.07;;;3.88;;
57826;SDS011;43656;57.746;11.780;2023-06-22T09:14:10;13.90;;;3.88;;
57826;SDS011;43656;57.746;11.780;2023-06-22T09:16:36;8.00;;;3.45;;
57826;SDS011;43656;57.746;11.780;2023-06-22T09:19:01;8.48;;;3.50;;
57826;SDS011;43656;57.746;11.780;2023-06-22T09:21:27;8.73;;;3.28;;
57826;SDS011;43656;57.746;11.780;2023-06-22T09:23:53;10.35;;;3.60;;
57826;SDS011;43656;57.746;11.780;2023-06-22T09:26:18;6.18;;;3.25;;
57826;SDS011;43656;57.746;11.780;2023-06-22T09:28:44;9.63;;;3.20;;
57826;SDS011;43656;57.746;11.780;2023-06-22T09:31:10;7.13;;;3.25;;
57826;SDS011;43656;57.746;11.780;2023-06-22T09:33:36;6.80;;;3.22;;
57826;SDS011;43656;57.746;11.780;2023-06-22T09:36:03;8.23;;;3.30;;
57826;SDS011;43656;57.746;11.780;2023-06-22T09:38:32;7.90;;;3.65;;
57826;SDS011;43656;57.746;11.780;2023-06-22T09:41:00;7.30;;;3.70;;
57826;SDS011;43656;57.746;11.780;2023-06-22T09:43:25;11.70;;;3.53;;
57826;SDS011;43656;57.746;11.780;2023-06-22T09:45:52;8.07;;;3.60;;
57826;SDS011;43656;57.746;11.780;2023-06-22T09:48:17;7.07;;;3.42;;
57826;SDS011;43656;57.746;11.780;2023-06-22T09:50:43;10.23;;;3.83;;
57826;SDS011;43656;57.746;11.780;2023-06-22T09:53:08;8.88;;;3.60;;
57826;SDS011;43656;57.746;11.780;2023-06-22T09:55:34;7.38;;;3.30;;
57826;SDS011;43656;57.746;11.780;2023-06-22T09:58:00;7.05;;;3.20;;
57826;SDS011;43656;57.746;11.780;2023-06-22T10:00:25;5.43;;;3.08;;
57826;SDS011;43656;57.746;11.780;2023-06-22T10:02:51;7.50;;;3.10;;
57826;SDS011;43656;57.746;11.780;2023-06-22T10:05:17;9.20;;;3.72;;
57826;SDS011;43656;57.746;11.780;2023-06-22T10:07:43;8.65;;;3.80;;
57826;SDS011;43656;57.746;11.780;2023-06-22T10:10:12;10.98;;;3.80;;
57826;SDS011;43656;57.746;11.780;2023-06-22T10:12:47;7.50;;;3.00;;
57826;SDS011;43656;57.746;11.780;2023-06-22T10:15:20;8.05;;;3.53;;
57826;SDS011;43656;57.746;11.780;2023-06-22T10:17:46;7.60;;;3.10;;
57826;SDS011;43656;57.746;11.780;2023-06-22T10:20:12;7.43;;;3.55;;
57826;SDS011;43656;57.746;11.780;2023-06-22T10:22:41;9.45;;;4.22;;
57826;SDS011;43656;57.746;11.780;2023-06-22T10:25:08;9.52;;;3.67;;
57826;SDS011;43656;57.746;11.780;2023-06-22T10:27:35;8.43;;;3.90;;
57826;SDS011;43656;57.746;11.780;2023-06-22T10:30:01;13.30;;;4.60;;
57826;SDS011;43656;57.746;11.780;2023-06-22T10:32:26;8.45;;;4.20;;
57826;SDS011;43656;57.746;11.780;2023-06-22T10:34:53;10.52;;;4.88;;
57826;SDS011;43656;57.746;11.780;2023-06-22T10:37:19;10.98;;;5.20;;
57826;SDS011;43656;57.746;11.780;2023-06-22T10:39:45;9.65;;;4.65;;
57826;SDS011;43656;57.746;11.780;2023-06-22T10:42:11;11.60;;;5.18;;
57826;SDS011;43656;57.746;11.780;2023-06-22T10:44:37;9.30;;;5.32;;
57826;SDS011;43656;57.746;11.780;2023-06-22T10:47:03;10.15;;;5.10;;
57826;SDS011;43656;57.746;11.780;2023-06-22T10:49:29;12.27;;;5.30;;
57826;SDS011;43656;57.746;11.780;2023-06-22T10:51:55;15.30;;;5.95;;
57826;SDS011;43656;57.746;11.780;2023-06-22T10:54:20;10.27;;;5.50;;
57826;SDS011;43656;57.746;11.780;2023-06-22T10:56:45;12.32;;;5.93;;
57826;SDS011;43656;57.746;11.780;2023-06-22T10:59:11;10.32;;;5.35;;
57826;SDS011;43656;57.746;11.780;2023-06-22T11:01:36;11.70;;;5.88;;
57826;SDS011;43656;57.746;11.780;2023-06-22T11:04:02;11.38;;;5.50;;
57826;SDS011;43656;57.746;11.780;2023-06-22T11:06:29;7.18;;;4.97;;
57826;SDS011;43656;57.746;11.780;2023-06-22T11:08:54;15.15;;;6.03;;
57826;SDS011;43656;57.746;11.780;2023-06-22T11:11:19;12.20;;;5.55;;
57826;SDS011;43656;57.746;11.780;2023-06-22T11:13:45;14.48;;;6.03;;
57826;SDS011;43656;57.746;11.780;2023-06-22T11:16:10;14.82;;;6.22;;
57826;SDS011;43656;57.746;11.780;2023-06-22T11:18:36;11.07;;;5.78;;
57826;SDS011;43656;57.746;11.780;2023-06-22T11:21:02;10.15;;;5.43;;
57826;SDS011;43656;57.746;11.780;2023-06-22T11:23:27;9.88;;;6.25;;
57826;SDS011;43656;57.746;11.780;2023-06-22T11:25:53;12.50;;;6.10;;
57826;SDS011;43656;57.746;11.780;2023-06-22T11:28:19;9.68;;;6.03;;
57826;SDS011;43656;57.746;11.780;2023-06-22T11:30:45;12.80;;;5.88;;
57826;SDS011;43656;57.746;11.780;2023-06-22T11:33:10;12.55;;;5.85;;
57826;SDS011;43656;57.746;11.780;2023-06-22T11:35:36;8.50;;;5.53;;
57826;SDS011;43656;57.746;11.780;2023-06-22T11:38:01;11.05;;;5.57;;
57826;SDS011;43656;57.746;11.780;2023-06-22T11:40:28;9.27;;;5.57;;
57826;SDS011;43656;57.746;11.780;2023-06-22T11:42:53;12.05;;;5.20;;
57826;SDS011;43656;57.746;11.780;2023-06-22T11:45:19;11.63;;;5.78;;
57826;SDS011;43656;57.746;11.780;2023-06-22T11:47:45;8.38;;;4.30;;
57826;SDS011;43656;57.746;11.780;2023-06-22T11:50:11;12.13;;;5.22;;
57826;SDS011;43656;57.746;11.780;2023-06-22T11:52:36;11.23;;;4.35;;
57826;SDS011;43656;57.746;11.780;2023-06-22T11:55:01;10.80;;;4.88;;
57826;SDS011;43656;57.746;11.780;2023-06-22T11:57:29;8.40;;;4.80;;
57826;SDS011;43656;57.746;11.780;2023-06-22T11:59:54;11.52;;;5.47;;
57826;SDS011;43656;57.746;11.780;2023-06-22T12:02:20;11.43;;;5.25;;
57826;SDS011;43656;57.746;11.780;2023-06-22T12:04:45;9.35;;;4.80;;
57826;SDS011;43656;57.746;11.780;2023-06-22T12:07:11;8.32;;;4.28;;
57826;SDS011;43656;57.746;11.780;2023-06-22T12:09:36;7.95;;;4.40;;
57826;SDS011;43656;57.746;11.780;2023-06-22T12:12:02;9.13;;;4.93;;
57826;SDS011;43656;57.746;11.780;2023-06-22T12:14:28;10.05;;;4.85;;
57826;SDS011;43656;57.746;11.780;2023-06-22T12:16:53;7.22;;;4.28;;
57826;SDS011;43656;57.746;11.780;2023-06-22T12:19:19;9.95;;;4.88;;
57826;SDS011;43656;57.746;11.780;2023-06-22T12:21:44;10.35;;;4.88;;
57826;SDS011;43656;57.746;11.780;2023-06-22T12:24:11;13.10;;;5.40;;
57826;SDS011;43656;57.746;11.780;2023-06-22T12:26:36;15.00;;;6.05;;
57826;SDS011;43656;57.746;11.780;2023-06-22T12:29:02;13.60;;;6.10;;
57826;SDS011;43656;57.746;11.780;2023-06-22T12:31:27;14.80;;;5.97;;
57826;SDS011;43656;57.746;11.780;2023-06-22T12:33:52;11.95;;;5.13;;
57826;SDS011;43656;57.746;11.780;2023-06-22T12:36:18;9.52;;;5.50;;
57826;SDS011;43656;57.746;11.780;2023-06-22T12:38:43;11.23;;;4.95;;
57826;SDS011;43656;57.746;11.780;2023-06-22T12:41:09;13.00;;;5.82;;
57826;SDS011;43656;57.746;11.780;2023-06-22T12:43:34;11.45;;;5.47;;
57826;SDS011;43656;57.746;11.780;2023-06-22T12:46:00;10.00;;;4.93;;
57826;SDS011;43656;57.746;11.780;2023-06-22T12:48:28;13.23;;;5.00;;
57826;SDS011;43656;57.746;11.780;2023-06-22T12:50:53;10.75;;;4.80;;
57826;SDS011;43656;57.746;11.780;2023-06-22T12:53:19;12.05;;;4.93;;
57826;SDS011;43656;57.746;11.780;2023-06-22T12:55:44;9.23;;;4.47;;
57826;SDS011;43656;57.746;11.780;2023-06-22T12:58:10;9.48;;;4.43;;
57826;SDS011;43656;57.746;11.780;2023-06-22T13:00:35;7.57;;;4.18;;
57826;SDS011;43656;57.746;11.780;2023-06-22T13:03:01;9.75;;;4.70;;
57826;SDS011;43656;57.746;11.780;2023-06-22T13:05:26;10.15;;;5.15;;
57826;SDS011;43656;57.746;11.780;2023-06-22T13:07:52;10.65;;;5.25;;
57826;SDS011;43656;57.746;11.780;2023-06-22T13:10:17;15.40;;;6.15;;
57826;SDS011;43656;57.746;11.780;2023-06-22T13:12:43;9.32;;;5.25;;
57826;SDS011;43656;57.746;11.780;2023-06-22T13:15:08;13.07;;;5.60;;
57826;SDS011;43656;57.746;11.780;2023-06-22T13:17:33;11.43;;;5.18;;
57826;SDS011;43656;57.746;11.780;2023-06-22T13:19:59;8.82;;;5.18;;
57826;SDS011;43656;57.746;11.780;2023-06-22T13:24:54;10.27;;;5.28;;
57826;SDS011;43656;57.746;11.780;2023-06-22T13:27:20;8.00;;;4.80;;
57826;SDS011;43656;57.746;11.780;2023-06-22T13:29:45;11.50;;;5.05;;
57826;SDS011;43656;57.746;11.780;2023-06-22T13:32:10;9.00;;;4.88;;
57826;SDS011;43656;57.746;11.780;2023-06-22T13:34:36;12.20;;;4.90;;
57826;SDS011;43656;57.746;11.780;2023-06-22T13:37:01;8.48;;;4.85;;
57826;SDS011;43656;57.746;11.780;2023-06-22T13:39:27;12.27;;;5.00;;
57826;SDS011;43656;57.746;11.780;2023-06-22T13:41:52;12.30;;;5.28;;
57826;SDS011;43656;57.746;11.780;2023-06-22T13:44:17;10.68;;;5.68;;
57826;SDS011;43656;57.746;11.780;2023-06-22T13:46:43;11.88;;;4.95;;
57826;SDS011;43656;57.746;11.780;2023-06-22T13:49:08;11.07;;;5.20;;
57826;SDS011;43656;57.746;11.780;2023-06-22T13:51:34;6.70;;;4.20;;
57826;SDS011;43656;57.746;11.780;2023-06-22T13:54:00;10.88;;;4.72;;
57826;SDS011;43656;57.746;11.780;2023-06-22T13:56:25;7.95;;;4.60;;
57826;SDS011;43656;57.746;11.780;2023-06-22T13:58:50;9.20;;;4.65;;
57826;SDS011;43656;57.746;11.780;2023-06-22T14:01:16;10.95;;;4.50;;
57826;SDS011;43656;57.746;11.780;2023-06-22T14:03:41;9.68;;;4.53;;
57826;SDS011;43656;57.746;11.780;2023-06-22T14:06:07;10.45;;;4.85;;
57826;SDS011;43656;57.746;11.780;2023-06-22T14:08:34;6.97;;;3.75;;
57826;SDS011;43656;57.746;11.780;2023-06-22T14:11:01;9.23;;;4.20;;
57826;SDS011;43656;57.746;11.780;2023-06-22T14:13:26;5.22;;;3.50;;
57826;SDS011;43656;57.746;11.780;2023-06-22T14:15:52;6.40;;;3.80;;
57826;SDS011;43656;57.746;11.780;2023-06-22T14:18:19;6.50;;;3.45;;
57826;SDS011;43656;57.746;11.780;2023-06-22T14:20:44;6.50;;;3.20;;
57826;SDS011;43656;57.746;11.780;2023-06-22T14:23:10;5.53;;;3.35;;
57826;SDS011;43656;57.746;11.780;2023-06-22T14:25:35;6.18;;;3.08;;
57826;SDS011;43656;57.746;11.780;2023-06-22T14:28:01;6.82;;;3.10;;
57826;SDS011;43656;57.746;11.780;2023-06-22T14:30:27;7.60;;;2.90;;
57826;SDS011;43656;57.746;11.780;2023-06-22T14:32:53;7.03;;;2.85;;
57826;SDS011;43656;57.746;11.780;2023-06-22T14:35:18;5.57;;;2.45;;